Time;durP1;ratioP1;P1;durP2;ratioP2;P2;SDS_P1;SDS_P2;PMS_P1;PMS_P2;Temp;Humidity;BMP_temperature;BMP_pressure;BME280_temperature;BME280_humidity;BME280_pressure;Samples;Min_cycle;Max_cycle;Signal;HPM_P1;HPM_P2
2021/08/25 00:00:02;;;;;;;2.43;0.80;;;14.00;99.90;;;;;;5134321;27;20442;-82
2021/08/25 00:02:30;;;;;;;1.73;1.00;;;13.90;99.90;;;;;;5134452;27;20493;-82
2021/08/25 00:04:56;;;;;;;3.53;1.10;;;13.90;99.90;;;;;;5134322;27;20445;-82
2021/08/25 00:07:26;;;;;;;1.70;1.10;;;13.90;99.90;;;;;;5134257;27;20469;-82
2021/08/25 00:09:53;;;;;;;2.20;1.20;;;13.90;99.90;;;;;;5133909;27;20450;-82
2021/08/25 00:12:20;;;;;;;1.00;0.87;;;13.80;99.90;;;;;;5134173;27;20816;-82
2021/08/25 00:14:47;;;;;;;3.07;2.20;;;13.80;99.90;;;;;;5134187;27;20454;-82
2021/08/25 00:17:14;;;;;;;0.80;0.60;;;13.80;99.90;;;;;;5134188;27;20449;-82
2021/08/25 00:19:42;;;;;;;2.60;2.10;;;13.80;99.90;;;;;;5134159;27;20533;-82
2021/08/25 00:22:11;;;;;;;2.97;0.80;;;13.70;99.90;;;;;;5133988;27;20478;-82
2021/08/25 00:24:38;;;;;;;2.13;1.10;;;13.70;99.90;;;;;;5134417;27;20446;-81
2021/08/25 00:27:05;;;;;;;2.50;1.30;;;13.70;99.90;;;;;;5133803;27;20438;-81
2021/08/25 00:29:33;;;;;;;1.13;1.00;;;13.60;99.90;;;;;;5134097;27;20460;-81
2021/08/25 00:32:00;;;;;;;1.30;1.17;;;13.60;99.90;;;;;;5134013;27;20477;-82
2021/08/25 00:34:26;;;;;;;2.63;1.30;;;13.60;99.90;;;;;;5134038;27;20450;-82
2021/08/25 00:36:54;;;;;;;3.57;1.60;;;13.60;99.90;;;;;;5134034;27;20438;-82
2021/08/25 00:39:21;;;;;;;2.40;1.50;;;13.60;99.90;;;;;;5134101;27;20426;-81
2021/08/25 00:41:48;;;;;;;1.10;0.80;;;13.60;99.90;;;;;;5136485;27;20474;-82
2021/08/25 00:44:15;;;;;;;0.83;0.70;;;13.60;99.90;;;;;;5137549;27;20468;-86
2021/08/25 00:46:42;;;;;;;1.90;0.83;;;13.50;99.90;;;;;;5137980;27;20818;-86
2021/08/25 00:49:08;;;;;;;1.27;0.97;;;13.60;99.90;;;;;;5138351;27;20453;-86
2021/08/25 00:51:35;;;;;;;1.20;1.10;;;13.50;99.90;;;;;;5138187;27;20928;-86
2021/08/25 00:54:03;;;;;;;1.50;0.70;;;13.60;99.90;;;;;;5137679;27;20964;-81
2021/08/25 00:56:30;;;;;;;1.10;0.90;;;13.50;99.90;;;;;;5137641;27;20442;-81
2021/08/25 00:58:57;;;;;;;1.47;0.93;;;13.60;99.90;;;;;;5137301;27;20959;-81
2021/08/25 01:01:33;;;;;;;2.10;1.23;;;13.50;99.90;;;;;;5137198;27;20449;-81
2021/08/25 01:04:04;;;;;;;0.90;0.90;;;13.50;99.90;;;;;;5137121;27;20984;-81
2021/08/25 01:06:31;;;;;;;1.83;1.50;;;13.40;99.90;;;;;;5137753;27;20430;-81
2021/08/25 01:09:03;;;;;;;1.83;0.87;;;13.40;99.90;;;;;;5137087;27;20444;-82
2021/08/25 01:11:30;;;;;;;2.43;1.00;;;13.40;99.90;;;;;;5137411;27;20426;-81
2021/08/25 01:13:56;;;;;;;1.83;1.10;;;13.40;99.90;;;;;;5137250;27;20461;-81
2021/08/25 01:16:25;;;;;;;1.27;0.60;;;13.30;99.90;;;;;;5137223;27;20450;-81
2021/08/25 01:18:52;;;;;;;2.40;1.33;;;13.30;99.90;;;;;;5137233;27;20454;-81
2021/08/25 01:21:19;;;;;;;2.67;1.57;;;13.40;99.90;;;;;;5137169;27;20454;-81
2021/08/25 01:23:47;;;;;;;2.43;1.23;;;13.40;99.90;;;;;;5136685;27;21011;-81
2021/08/25 01:26:16;;;;;;;2.67;1.13;;;13.40;99.90;;;;;;5136737;27;20976;-83
2021/08/25 01:28:50;;;;;;;2.47;1.00;;;13.40;99.90;;;;;;5137439;27;20855;-86
2021/08/25 01:31:19;;;;;;;1.60;1.40;;;13.30;99.90;;;;;;5137350;27;20430;-86
2021/08/25 01:33:46;;;;;;;2.30;0.97;;;13.40;99.90;;;;;;5137130;27;20458;-82
2021/08/25 01:36:15;;;;;;;0.90;0.77;;;13.30;99.90;;;;;;5136851;27;20515;-82
2021/08/25 01:38:48;;;;;;;2.33;1.40;;;13.30;99.90;;;;;;5136833;27;20449;-81
2021/08/25 01:41:15;;;;;;;3.20;1.13;;;13.30;99.90;;;;;;5136320;27;20477;-81
2021/08/25 01:43:42;;;;;;;0.80;0.70;;;13.30;99.90;;;;;;5136620;27;20489;-81
2021/08/25 01:46:17;;;;;;;2.90;1.70;;;13.30;99.90;;;;;;5136687;27;20457;-82
2021/08/25 01:48:45;;;;;;;4.50;1.60;;;13.30;99.90;;;;;;5137523;27;20426;-81
2021/08/25 01:51:12;;;;;;;1.17;0.93;;;13.20;99.90;;;;;;5136485;27;20442;-85
2021/08/25 01:53:38;;;;;;;2.83;2.30;;;13.10;99.90;;;;;;5136774;27;20454;-86
2021/08/25 01:56:06;;;;;;;1.00;0.73;;;13.20;99.90;;;;;;5136577;27;20457;-81
2021/08/25 01:58:32;;;;;;;1.37;1.27;;;13.20;99.90;;;;;;5136431;27;20454;-81
2021/08/25 02:00:59;;;;;;;0.70;0.70;;;13.30;99.90;;;;;;5136107;27;20446;-81
2021/08/25 02:03:26;;;;;;;2.40;1.33;;;13.20;99.90;;;;;;5136227;27;20482;-83
2021/08/25 02:05:54;;;;;;;2.30;1.83;;;13.20;99.90;;;;;;5136315;27;20450;-82
2021/08/25 02:08:21;;;;;;;0.73;0.53;;;13.20;99.90;;;;;;5136261;27;20461;-81
2021/08/25 02:10:47;;;;;;;2.10;1.30;;;13.10;99.90;;;;;;5136468;27;20435;-81
2021/08/25 02:13:14;;;;;;;1.83;1.10;;;13.10;99.90;;;;;;5136670;27;20470;-81
2021/08/25 02:15:41;;;;;;;1.23;1.17;;;13.10;99.90;;;;;;5136114;27;20453;-81
2021/08/25 02:18:08;;;;;;;2.00;1.40;;;13.10;99.90;;;;;;5135768;27;20928;-81
2021/08/25 02:20:34;;;;;;;1.07;0.90;;;13.10;99.90;;;;;;5136015;27;20520;-81
2021/08/25 02:23:02;;;;;;;1.97;0.93;;;13.10;99.90;;;;;;5135827;27;20489;-81
2021/08/25 02:25:29;;;;;;;1.30;0.97;;;13.00;99.90;;;;;;5135612;27;20964;-81
2021/08/25 02:27:56;;;;;;;5.77;1.20;;;12.90;99.90;;;;;;5135867;27;20453;-81
2021/08/25 02:30:23;;;;;;;0.80;0.50;;;12.90;99.90;;;;;;5135830;27;20461;-81
2021/08/25 02:32:50;;;;;;;1.27;0.70;;;12.90;99.90;;;;;;5135719;27;20488;-81
2021/08/25 02:35:16;;;;;;;0.70;0.70;;;12.90;99.90;;;;;;5135415;27;20434;-81
2021/08/25 02:37:43;;;;;;;1.77;1.20;;;12.80;99.90;;;;;;5135662;27;20446;-81
2021/08/25 02:40:12;;;;;;;0.80;0.80;;;12.80;99.90;;;;;;5135699;27;20442;-86
2021/08/25 02:42:40;;;;;;;1.80;1.07;;;12.80;99.90;;;;;;5135730;27;20482;-86
2021/08/25 02:45:08;;;;;;;1.30;0.90;;;12.80;99.90;;;;;;5135802;27;20457;-86
2021/08/25 02:47:35;;;;;;;4.53;1.10;;;12.80;99.90;;;;;;5135787;27;20457;-86
2021/08/25 02:50:02;;;;;;;1.87;1.37;;;12.70;99.90;;;;;;5135747;27;20437;-81
2021/08/25 02:52:28;;;;;;;1.50;0.73;;;12.70;99.90;;;;;;5135388;27;20535;-86
2021/08/25 02:54:55;;;;;;;0.60;0.60;;;12.70;99.90;;;;;;5135649;27;20442;-86
2021/08/25 02:57:23;;;;;;;2.97;1.47;;;12.80;99.90;;;;;;5135730;27;20941;-86
2021/08/25 02:59:50;;;;;;;1.90;0.90;;;12.80;99.90;;;;;;5135422;27;20442;-81
2021/08/25 03:02:16;;;;;;;2.13;1.70;;;12.70;99.90;;;;;;5135186;27;20465;-82
2021/08/25 03:04:43;;;;;;;1.70;1.30;;;12.60;99.90;;;;;;5133969;27;20820;-81
2021/08/25 03:07:10;;;;;;;0.83;0.60;;;12.60;99.90;;;;;;5135789;27;20450;-86
2021/08/25 03:09:37;;;;;;;1.27;0.73;;;12.60;99.90;;;;;;5135435;27;20793;-85
2021/08/25 03:12:04;;;;;;;2.43;0.87;;;12.60;99.90;;;;;;5135105;27;20447;-81
2021/08/25 03:14:32;;;;;;;1.43;0.80;;;12.60;99.90;;;;;;5135038;27;20790;-81
2021/08/25 03:16:59;;;;;;;0.60;0.60;;;12.60;99.90;;;;;;5134636;27;20968;-81
2021/08/25 03:19:25;;;;;;;1.57;0.63;;;12.60;99.90;;;;;;5134926;27;20451;-81
2021/08/25 03:21:52;;;;;;;0.60;0.57;;;12.60;99.90;;;;;;5134777;27;20446;-81
2021/08/25 03:24:19;;;;;;;0.63;0.63;;;12.60;99.90;;;;;;5134758;27;20474;-81
2021/08/25 03:26:46;;;;;;;1.23;1.00;;;12.60;99.90;;;;;;5134774;27;20453;-81
2021/08/25 03:29:12;;;;;;;0.97;0.90;;;12.60;99.90;;;;;;5134712;27;20449;-81
2021/08/25 03:31:41;;;;;;;2.23;1.20;;;12.60;99.90;;;;;;5134513;27;20437;-85
2021/08/25 03:34:07;;;;;;;1.13;1.03;;;12.60;99.90;;;;;;5134940;27;20485;-86
2021/08/25 03:36:34;;;;;;;1.50;1.00;;;12.50;99.90;;;;;;5134946;27;20450;-86
2021/08/25 03:39:01;;;;;;;1.90;1.00;;;12.50;99.90;;;;;;5134913;27;20446;-86
2021/08/25 03:41:28;;;;;;;1.83;1.00;;;12.50;99.90;;;;;;5134637;27;20843;-85
2021/08/25 03:43:54;;;;;;;2.10;0.97;;;12.50;99.90;;;;;;5134613;27;20481;-85
2021/08/25 03:46:21;;;;;;;1.43;1.00;;;12.50;99.90;;;;;;5134621;27;20453;-85
2021/08/25 03:48:49;;;;;;;1.30;0.97;;;12.50;99.90;;;;;;5134818;27;20454;-85
2021/08/25 03:51:16;;;;;;;1.67;1.10;;;12.50;99.90;;;;;;5134425;27;20444;-84
2021/08/25 03:53:43;;;;;;;2.30;1.27;;;12.50;99.90;;;;;;5134357;27;20988;-85
2021/08/25 03:56:09;;;;;;;0.80;0.70;;;12.40;99.90;;;;;;5134666;27;20777;-85
2021/08/25 03:58:36;;;;;;;1.23;1.13;;;12.40;99.90;;;;;;5134573;27;20438;-85
2021/08/25 04:01:03;;;;;;;0.60;0.60;;;12.40;99.90;;;;;;5134365;27;20452;-81
2021/08/25 04:03:31;;;;;;;2.93;0.80;;;12.40;99.90;;;;;;5133865;27;20989;-80
2021/08/25 04:05:59;;;;;;;1.53;0.60;;;12.40;99.90;;;;;;5134525;27;20442;-81
2021/08/25 04:08:25;;;;;;;0.80;0.60;;;12.30;99.90;;;;;;5134280;27;20430;-81
2021/08/25 04:10:52;;;;;;;2.53;0.97;;;12.30;99.90;;;;;;5133955;27;20457;-81
2021/08/25 04:13:19;;;;;;;2.77;1.43;;;12.30;99.90;;;;;;5134286;27;20469;-81
2021/08/25 04:15:46;;;;;;;3.13;1.50;;;12.30;99.90;;;;;;5137210;27;20442;-85
2021/08/25 04:18:12;;;;;;;1.70;1.00;;;12.30;99.90;;;;;;5138608;27;20446;-84
2021/08/25 04:20:39;;;;;;;2.20;1.27;;;12.30;99.90;;;;;;5139330;27;20775;-81
2021/08/25 04:23:07;;;;;;;2.67;0.90;;;12.30;99.90;;;;;;5138263;27;20509;-85
2021/08/25 04:25:34;;;;;;;2.13;1.30;;;12.20;99.90;;;;;;5138431;27;20438;-85
2021/08/25 04:28:01;;;;;;;0.50;0.43;;;12.20;99.90;;;;;;5137969;27;20964;-81
2021/08/25 04:30:27;;;;;;;2.57;1.17;;;12.20;99.90;;;;;;5137865;27;20445;-81
2021/08/25 04:32:54;;;;;;;3.13;0.80;;;12.20;99.90;;;;;;5138288;27;20469;-85
2021/08/25 04:35:21;;;;;;;2.00;0.70;;;12.20;99.90;;;;;;5138157;27;20442;-81
2021/08/25 04:37:48;;;;;;;0.53;0.50;;;12.20;99.90;;;;;;5138021;27;20426;-81
2021/08/25 04:40:16;;;;;;;5.90;1.27;;;12.20;99.90;;;;;;5137980;27;20469;-81
2021/08/25 04:42:42;;;;;;;1.10;1.00;;;12.10;99.90;;;;;;5137723;27;20824;-85
2021/08/25 04:45:10;;;;;;;1.57;1.07;;;12.10;99.90;;;;;;5137760;27;20473;-85
2021/08/25 04:47:37;;;;;;;4.13;2.73;;;12.20;99.90;;;;;;5138171;27;20438;-85
2021/08/25 04:50:04;;;;;;;2.20;1.10;;;12.20;99.90;;;;;;5138015;27;20464;-86
2021/08/25 04:52:31;;;;;;;0.73;0.70;;;12.20;99.90;;;;;;5137887;27;20827;-86
2021/08/25 04:54:57;;;;;;;0.90;0.57;;;12.20;99.90;;;;;;5137790;27;20445;-86
2021/08/25 04:57:25;;;;;;;2.50;0.90;;;12.20;99.90;;;;;;5138311;27;20446;-86
2021/08/25 04:59:52;;;;;;;2.43;1.10;;;12.20;99.90;;;;;;5138044;27;20442;-86
2021/08/25 05:02:19;;;;;;;4.20;1.80;;;12.10;99.90;;;;;;5137884;27;20470;-86
2021/08/25 05:04:48;;;;;;;0.70;0.70;;;12.20;99.90;;;;;;5138095;27;20468;-86
2021/08/25 05:07:15;;;;;;;1.10;0.57;;;12.20;99.90;;;;;;5137671;27;20472;-86
2021/08/25 05:09:41;;;;;;;1.00;0.87;;;12.20;99.90;;;;;;5140891;27;20448;-86
2021/08/25 05:12:08;;;;;;;0.80;0.80;;;12.20;99.90;;;;;;5137292;27;20430;-86
2021/08/25 05:14:37;;;;;;;1.80;0.67;;;12.20;99.90;;;;;;5137363;27;20434;-86
2021/08/25 05:17:04;;;;;;;4.80;1.63;;;12.30;99.90;;;;;;5137543;27;20460;-86
2021/08/25 05:19:30;;;;;;;1.80;1.07;;;12.30;99.90;;;;;;5137608;27;20447;-86
2021/08/25 05:21:57;;;;;;;5.13;1.97;;;12.30;99.90;;;;;;5137402;27;20446;-86
2021/08/25 05:24:24;;;;;;;0.70;0.70;;;12.30;99.90;;;;;;5137128;27;20474;-86
2021/08/25 05:26:51;;;;;;;5.90;2.13;;;12.40;99.90;;;;;;5136497;27;20442;-86
2021/08/25 05:29:17;;;;;;;0.70;0.67;;;12.40;99.90;;;;;;5137311;27;20454;-86
2021/08/25 05:31:46;;;;;;;1.90;1.23;;;12.40;99.90;;;;;;5136769;27;20922;-81
2021/08/25 05:34:13;;;;;;;1.73;1.50;;;12.50;99.90;;;;;;5136877;27;20466;-81
2021/08/25 05:36:39;;;;;;;0.90;0.80;;;12.50;99.90;;;;;;5136885;27;20446;-81
2021/08/25 05:39:06;;;;;;;4.07;1.40;;;12.60;99.90;;;;;;5136500;27;20450;-81
2021/08/25 05:41:33;;;;;;;1.33;1.00;;;12.60;99.90;;;;;;5136624;27;21016;-86
2021/08/25 05:44:03;;;;;;;1.20;1.10;;;12.60;99.90;;;;;;5136865;27;20478;-86
2021/08/25 05:46:30;;;;;;;2.10;1.00;;;12.70;99.90;;;;;;5136686;27;20483;-81
2021/08/25 05:48:58;;;;;;;3.70;0.73;;;12.80;99.90;;;;;;5136744;27;20445;-86
2021/08/25 05:51:25;;;;;;;1.73;1.60;;;12.90;99.90;;;;;;5136908;27;20450;-86
2021/08/25 05:53:52;;;;;;;1.73;0.93;;;12.90;99.90;;;;;;5136373;27;20462;-86
2021/08/25 05:56:19;;;;;;;0.83;0.80;;;13.00;99.90;;;;;;5136983;27;20507;-86
2021/08/25 05:58:46;;;;;;;2.50;1.10;;;13.00;99.90;;;;;;5137165;27;20454;-86
2021/08/25 06:01:13;;;;;;;2.20;1.10;;;13.10;99.90;;;;;;5136806;27;20453;-86
2021/08/25 06:03:40;;;;;;;2.20;1.20;;;13.20;99.90;;;;;;5136343;27;20492;-86
2021/08/25 06:06:11;;;;;;;0.60;0.60;;;13.20;99.90;;;;;;5136362;27;20450;-82
2021/08/25 06:08:38;;;;;;;1.80;1.17;;;13.40;99.90;;;;;;5136315;27;20439;-81
2021/08/25 06:11:04;;;;;;;3.70;1.83;;;13.50;99.90;;;;;;5136630;27;20446;-84
2021/08/25 06:13:31;;;;;;;3.90;1.60;;;13.70;99.90;;;;;;5136277;27;20470;-81
2021/08/25 06:15:58;;;;;;;0.73;0.67;;;13.80;99.90;;;;;;5136175;27;20441;-81
2021/08/25 06:18:24;;;;;;;1.07;0.80;;;14.00;99.90;;;;;;5136306;27;20438;-81
2021/08/25 06:20:52;;;;;;;1.33;1.17;;;14.10;99.90;;;;;;5136055;27;20465;-82
2021/08/25 06:23:20;;;;;;;1.00;0.73;;;14.30;99.90;;;;;;5135945;27;20462;-81
2021/08/25 06:25:49;;;;;;;1.07;0.80;;;14.50;99.90;;;;;;5135563;27;20868;-81
2021/08/25 06:28:15;;;;;;;1.37;0.80;;;14.60;99.90;;;;;;5135600;27;20454;-81
2021/08/25 06:30:42;;;;;;;3.03;1.23;;;14.70;99.90;;;;;;5135809;27;20461;-81
2021/08/25 06:33:09;;;;;;;1.80;1.10;;;14.90;99.90;;;;;;5135717;27;20492;-81
2021/08/25 06:35:36;;;;;;;1.10;1.03;;;15.00;99.90;;;;;;5135836;27;20431;-86
2021/08/25 06:38:03;;;;;;;0.53;0.53;;;15.10;99.90;;;;;;5135965;27;20441;-87
2021/08/25 06:40:32;;;;;;;1.70;1.10;;;15.20;99.90;;;;;;5135711;27;20469;-86
2021/08/25 06:42:59;;;;;;;1.60;1.03;;;15.30;99.90;;;;;;5136082;27;20470;-86
2021/08/25 06:45:25;;;;;;;1.97;1.23;;;15.50;99.90;;;;;;5135879;27;20477;-87
2021/08/25 06:47:52;;;;;;;0.53;0.53;;;15.60;99.90;;;;;;5136029;27;20458;-85
2021/08/25 06:50:19;;;;;;;1.57;0.97;;;15.70;99.90;;;;;;5135813;27;20445;-87
2021/08/25 06:52:46;;;;;;;1.30;1.17;;;15.70;99.90;;;;;;5135494;27;20992;-86
2021/08/25 06:55:12;;;;;;;1.67;1.57;;;15.80;99.90;;;;;;5136173;27;20769;-87
2021/08/25 06:57:41;;;;;;;0.97;0.77;;;15.90;99.90;;;;;;5135597;27;20443;-88
2021/08/25 07:00:08;;;;;;;1.33;1.17;;;16.00;99.90;;;;;;5135790;27;20456;-88
2021/08/25 07:02:35;;;;;;;0.60;0.60;;;16.10;99.90;;;;;;5135618;27;20857;-85
2021/08/25 07:05:05;;;;;;;2.00;0.90;;;16.20;99.90;;;;;;5135504;27;20478;-87
2021/08/25 07:07:32;;;;;;;1.87;1.27;;;16.20;99.90;;;;;;5135655;27;20450;-88
2021/08/25 07:09:58;;;;;;;2.47;1.30;;;16.30;99.90;;;;;;5135523;27;20442;-87
2021/08/25 07:12:25;;;;;;;3.27;1.10;;;16.40;99.90;;;;;;5135407;27;20470;-87
2021/08/25 07:14:54;;;;;;;4.73;0.90;;;16.50;99.90;;;;;;5135515;27;20839;-88
2021/08/25 07:17:21;;;;;;;3.80;1.10;;;16.50;99.90;;;;;;5135414;27;20497;-85
2021/08/25 07:19:48;;;;;;;5.77;1.70;;;16.70;99.90;;;;;;5135348;27;20442;-87
2021/08/25 07:22:15;;;;;;;2.27;0.90;;;16.80;99.90;;;;;;5134948;27;20465;-87
2021/08/25 07:24:42;;;;;;;2.00;1.40;;;16.90;99.90;;;;;;5135563;27;20996;-87
2021/08/25 07:27:09;;;;;;;1.50;1.10;;;16.90;99.90;;;;;;5135389;27;20453;-87
2021/08/25 07:29:36;;;;;;;0.70;0.70;;;16.90;99.90;;;;;;5135184;27;20426;-87
2021/08/25 07:32:13;;;;;;;4.33;0.97;;;17.00;99.90;;;;;;5135009;27;20462;-88
2021/08/25 07:34:40;;;;;;;1.30;0.87;;;17.20;99.90;;;;;;5135004;27;20438;-82
2021/08/25 07:37:07;;;;;;;4.23;1.37;;;17.20;99.90;;;;;;5134636;27;20969;-82
2021/08/25 07:39:33;;;;;;;1.00;0.90;;;17.30;99.90;;;;;;5134374;27;20446;-82
2021/08/25 07:42:00;;;;;;;2.50;1.20;;;17.40;99.90;;;;;;5133296;27;20466;-82
2021/08/25 07:44:27;;;;;;;2.20;1.20;;;17.60;99.90;;;;;;5134203;27;20489;-82
2021/08/25 07:46:55;;;;;;;1.20;1.10;;;17.60;99.90;;;;;;5134608;27;20457;-82
2021/08/25 07:49:26;;;;;;;1.40;1.30;;;17.70;99.90;;;;;;5134490;27;20461;-87
2021/08/25 07:51:55;;;;;;;1.70;1.40;;;17.90;99.90;;;;;;5135186;27;20439;-87
2021/08/25 07:54:24;;;;;;;1.23;1.00;;;17.80;99.90;;;;;;5135123;27;20450;-86
2021/08/25 07:56:50;;;;;;;0.83;0.80;;;18.00;99.90;;;;;;5135083;27;20533;-82
2021/08/25 07:59:18;;;;;;;0.90;0.60;;;18.10;99.90;;;;;;5134358;27;20530;-83
2021/08/25 08:01:45;;;;;;;3.93;0.90;;;18.10;99.90;;;;;;5134473;27;20435;-83
2021/08/25 08:04:11;;;;;;;1.57;1.00;;;18.20;99.90;;;;;;5134246;27;20450;-83
2021/08/25 08:06:39;;;;;;;1.13;1.03;;;18.40;99.90;;;;;;5134313;27;20450;-83
2021/08/25 08:09:06;;;;;;;1.37;0.77;;;18.50;99.90;;;;;;5134908;27;20450;-90
2021/08/25 08:11:33;;;;;;;1.37;0.97;;;18.50;99.90;;;;;;5134956;27;20449;-88
2021/08/25 08:14:00;;;;;;;0.60;0.60;;;18.70;99.90;;;;;;5135035;27;20794;-89
2021/08/25 08:16:27;;;;;;;0.70;0.67;;;18.70;99.90;;;;;;5135301;27;21014;-87
2021/08/25 08:18:58;;;;;;;1.80;1.70;;;18.70;99.90;;;;;;5135179;27;20469;-87
2021/08/25 08:21:26;;;;;;;1.37;0.77;;;18.70;99.90;;;;;;5135383;27;20450;-83
2021/08/25 08:23:56;;;;;;;1.17;0.90;;;18.80;99.90;;;;;;5133924;27;21003;-83
2021/08/25 08:26:26;;;;;;;1.10;1.03;;;19.00;99.90;;;;;;5134026;27;20493;-83
2021/08/25 08:28:53;;;;;;;0.73;0.73;;;19.00;99.90;;;;;;5133972;27;20427;-88
2021/08/25 08:31:21;;;;;;;1.60;0.70;;;19.10;99.90;;;;;;5134702;27;20454;-84
2021/08/25 08:33:49;;;;;;;1.10;0.90;;;19.20;99.90;;;;;;5133989;27;20465;-83
2021/08/25 08:36:27;;;;;;;5.57;1.47;;;19.30;99.90;;;;;;5134083;27;20415;-83
2021/08/25 08:38:55;;;;;;;1.30;1.10;;;19.30;99.90;;;;;;5134125;27;20422;-85
2021/08/25 08:41:25;;;;;;;1.37;0.63;;;19.20;99.90;;;;;;5133945;27;21023;-89
2021/08/25 08:44:03;;;;;;;0.80;0.80;;;19.30;99.90;;;;;;5135002;27;20481;-83
2021/08/25 08:49:43;;;;;;;2.57;0.93;;;19.50;99.90;;;;;;5134765;27;20465;-84
2021/08/25 08:52:17;;;;;;;0.40;0.40;;;19.50;99.90;;;;;;5134043;27;20868;-88
2021/08/25 08:54:57;;;;;;;0.70;0.70;;;19.50;99.90;;;;;;5135278;27;20433;-86
2021/08/25 08:57:25;;;;;;;1.10;1.00;;;19.60;99.90;;;;;;5134486;27;20783;-88
2021/08/25 08:59:52;;;;;;;0.80;0.80;;;19.70;99.90;;;;;;5134543;27;20442;-87
2021/08/25 09:02:37;;;;;;;2.30;1.33;;;19.80;99.90;;;;;;5136304;27;20468;-89
2021/08/25 09:05:16;;;;;;;1.00;0.77;;;19.80;99.90;;;;;;5138502;27;20993;-88
2021/08/25 09:07:49;;;;;;;0.60;0.60;;;19.90;99.90;;;;;;5139059;27;20825;-88
2021/08/25 09:10:27;;;;;;;2.17;0.83;;;20.00;99.90;;;;;;5142962;27;20934;-84
2021/08/25 09:12:57;;;;;;;0.97;0.97;;;20.10;99.90;;;;;;5137766;27;20470;-87
2021/08/25 09:15:27;;;;;;;1.03;0.93;;;20.10;99.90;;;;;;5138175;27;20415;-89
2021/08/25 09:18:01;;;;;;;1.53;1.10;;;20.20;99.90;;;;;;5137483;27;20906;-89
2021/08/25 09:23:53;;;;;;;0.80;0.80;;;20.40;99.90;;;;;;5135358;27;20460;-83
2021/08/25 09:27:03;;;;;;;1.90;1.50;;;20.60;99.90;;;;;;5137111;27;20477;-84
2021/08/25 09:29:40;;;;;;;0.63;0.63;;;20.80;99.90;;;;;;5136788;27;20446;-83
2021/08/25 09:32:24;;;;;;;2.23;1.60;;;21.00;99.90;;;;;;5137057;27;20775;-83
2021/08/25 09:35:00;;;;;;;0.60;0.60;;;21.10;99.90;;;;;;5137530;27;20966;-82
2021/08/25 09:37:29;;;;;;;0.70;0.70;;;21.20;99.90;;;;;;5136639;27;20925;-82
2021/08/25 09:40:00;;;;;;;1.20;0.90;;;20.90;99.90;;;;;;5136527;27;20783;-83
2021/08/25 09:42:41;;;;;;;1.70;1.50;;;20.60;99.90;;;;;;5136077;27;20501;-86
2021/08/25 09:48:15;;;;;;;2.00;1.13;;;20.50;99.90;;;;;;5138133;27;20435;-88
2021/08/25 09:50:57;;;;;;;1.20;1.20;;;20.60;99.90;;;;;;5137104;27;20448;-81
2021/08/25 09:53:49;;;;;;;1.63;1.20;;;20.60;99.90;;;;;;5136924;27;20466;-88
2021/08/25 09:56:35;;;;;;;1.27;1.17;;;20.60;99.90;;;;;;5121925;27;20450;-81
2021/08/25 09:59:02;;;;;;;1.27;1.17;;;20.40;99.90;;;;;;5137408;27;20442;-82
2021/08/25 10:01:31;;;;;;;2.40;1.13;;;20.30;99.90;;;;;;5136696;27;20438;-85
2021/08/25 10:03:58;;;;;;;0.93;0.87;;;20.30;99.90;;;;;;5136588;27;20489;-82
2021/08/25 10:06:27;;;;;;;1.27;1.17;;;20.30;99.90;;;;;;5136529;27;20505;-83
2021/08/25 10:09:04;;;;;;;0.70;0.70;;;20.30;99.90;;;;;;5136637;27;20413;-89
2021/08/25 10:11:34;;;;;;;0.97;0.83;;;20.40;99.90;;;;;;5136286;27;20442;-86
2021/08/25 10:14:06;;;;;;;3.23;1.17;;;20.40;99.90;;;;;;5135571;27;20476;-82
2021/08/25 10:16:43;;;;;;;1.87;0.80;;;20.30;99.90;;;;;;5136464;27;20789;-83
2021/08/25 10:19:41;;;;;;;2.20;1.20;;;20.40;99.90;;;;;;5136490;27;20442;-87
2021/08/25 10:22:26;;;;;;;0.80;0.70;;;20.60;99.90;;;;;;5136585;27;20434;-85
2021/08/25 10:25:11;;;;;;;0.70;0.70;;;20.70;99.90;;;;;;5136487;27;20434;-86
2021/08/25 10:28:04;;;;;;;1.60;1.30;;;20.80;99.90;;;;;;5136786;27;20426;-89
2021/08/25 10:30:57;;;;;;;3.50;0.90;;;21.10;99.90;;;;;;5136322;27;20426;-87
2021/08/25 10:33:24;;;;;;;1.20;0.97;;;21.20;99.90;;;;;;5136499;27;20497;-89
2021/08/25 10:35:53;;;;;;;1.97;1.10;;;21.00;99.90;;;;;;5136537;27;20430;-89
2021/08/25 10:38:25;;;;;;;1.40;0.70;;;20.70;99.90;;;;;;5136672;27;20434;-88
2021/08/25 10:40:53;;;;;;;1.43;0.77;;;20.70;99.90;;;;;;5135768;27;20437;-81
2021/08/25 10:43:40;;;;;;;1.30;1.20;;;20.80;99.90;;;;;;5135160;27;20478;-81
2021/08/25 10:46:09;;;;;;;1.37;0.80;;;21.00;99.90;;;;;;5135192;27;20827;-83
2021/08/25 10:48:52;;;;;;;1.53;0.90;;;21.00;99.90;;;;;;5135575;27;20841;-85
2021/08/25 10:51:30;;;;;;;1.83;1.20;;;21.00;99.90;;;;;;5135877;27;20772;-85
2021/08/25 10:53:57;;;;;;;1.00;0.90;;;21.00;99.90;;;;;;5135900;27;20470;-86
2021/08/25 10:56:30;;;;;;;1.70;1.10;;;21.00;99.90;;;;;;5136444;27;20445;-86
2021/08/25 10:59:00;;;;;;;0.90;0.90;;;21.20;99.90;;;;;;5135882;27;20776;-86
2021/08/25 11:01:30;;;;;;;0.97;0.80;;;21.20;99.90;;;;;;5135270;27;20889;-81
2021/08/25 11:04:01;;;;;;;0.97;0.77;;;21.30;99.90;;;;;;5134832;27;20798;-82
2021/08/25 11:06:33;;;;;;;0.63;0.63;;;21.40;99.90;;;;;;5135568;27;20469;-82
2021/08/25 11:09:25;;;;;;;1.93;0.90;;;21.70;99.70;;;;;;5135156;27;20445;-81
2021/08/25 11:11:55;;;;;;;1.97;0.83;;;21.70;98.90;;;;;;5132546;27;20937;-82
2021/08/25 11:14:28;;;;;;;2.20;1.23;;;21.60;98.10;;;;;;5135050;27;20437;-83
2021/08/25 11:16:58;;;;;;;2.00;0.87;;;21.50;97.20;;;;;;5135132;27;20516;-83
2021/08/25 11:19:54;;;;;;;1.03;0.97;;;21.50;97.50;;;;;;5134711;27;20785;-82
2021/08/25 11:22:24;;;;;;;1.20;1.10;;;21.30;95.40;;;;;;5134418;27;20468;-83
2021/08/25 11:24:52;;;;;;;2.07;1.00;;;21.10;95.50;;;;;;5134177;27;20430;-82
2021/08/25 11:27:25;;;;;;;3.00;1.20;;;20.90;97.10;;;;;;5134821;27;20476;-82
2021/08/25 11:30:11;;;;;;;1.00;0.70;;;20.80;98.00;;;;;;5134467;27;20909;-81
2021/08/25 11:32:45;;;;;;;2.07;1.03;;;20.80;98.20;;;;;;5135200;27;20469;-86
2021/08/25 11:35:13;;;;;;;1.80;1.13;;;20.80;97.90;;;;;;5135224;27;20431;-84
2021/08/25 11:37:43;;;;;;;3.30;1.43;;;20.70;97.60;;;;;;5135176;27;20437;-86
2021/08/25 11:40:11;;;;;;;1.70;1.20;;;20.50;97.40;;;;;;5134841;27;20407;-86
2021/08/25 11:42:41;;;;;;;0.70;0.70;;;20.30;99.40;;;;;;5134363;27;20482;-84
2021/08/25 11:45:19;;;;;;;3.53;0.97;;;20.30;96.60;;;;;;5134779;27;20522;-82
2021/08/25 11:47:52;;;;;;;1.20;0.83;;;20.30;97.70;;;;;;5134296;27;20434;-84
2021/08/25 11:50:20;;;;;;;1.00;0.70;;;20.30;98.00;;;;;;5134573;27;20430;-82
2021/08/25 11:52:47;;;;;;;3.67;0.90;;;20.30;97.10;;;;;;5134079;27;21003;-81
2021/08/25 11:55:15;;;;;;;2.03;0.70;;;20.50;98.10;;;;;;5134403;27;20808;-82
2021/08/25 11:57:47;;;;;;;1.90;1.20;;;20.80;98.40;;;;;;5134420;27;20487;-82
2021/08/25 12:00:16;;;;;;;1.40;1.03;;;20.80;97.90;;;;;;5134093;27;20958;-81
2021/08/25 12:02:58;;;;;;;1.00;0.93;;;20.80;97.40;;;;;;5133968;27;21011;-82
2021/08/25 12:05:28;;;;;;;0.73;0.73;;;20.60;97.90;;;;;;5134370;27;20423;-82
2021/08/25 12:08:06;;;;;;;1.07;0.60;;;20.50;98.30;;;;;;5135217;27;20434;-82
2021/08/25 12:10:34;;;;;;;1.03;0.87;;;20.40;97.10;;;;;;5134404;27;20546;-83
2021/08/25 12:13:02;;;;;;;1.27;0.70;;;20.50;98.00;;;;;;5134292;27;20462;-82
2021/08/25 12:15:49;;;;;;;0.80;0.80;;;20.60;97.00;;;;;;5134276;27;20435;-83
2021/08/25 12:18:19;;;;;;;1.00;0.90;;;20.80;97.50;;;;;;5134281;27;20483;-81
2021/08/25 12:20:49;;;;;;;0.97;0.97;;;20.80;96.40;;;;;;5134282;27;20429;-82
2021/08/25 12:23:17;;;;;;;0.80;0.60;;;20.60;95.90;;;;;;5134122;27;20818;-82
2021/08/25 12:25:47;;;;;;;1.73;0.80;;;20.50;95.90;;;;;;5134096;27;20426;-83
2021/08/25 12:28:15;;;;;;;0.90;0.90;;;20.50;95.70;;;;;;5134129;27;20413;-82
2021/08/25 12:30:44;;;;;;;0.80;0.60;;;20.50;94.70;;;;;;5134092;27;20434;-81
2021/08/25 12:33:12;;;;;;;0.97;0.70;;;20.40;96.10;;;;;;5134037;27;20462;-82
2021/08/25 12:35:40;;;;;;;0.83;0.83;;;20.50;96.40;;;;;;5134741;27;20433;-82
2021/08/25 12:38:07;;;;;;;1.00;0.77;;;20.50;98.10;;;;;;5138127;27;20423;-82
2021/08/25 12:40:34;;;;;;;0.70;0.53;;;20.60;99.90;;;;;;5137690;27;20962;-82
2021/08/25 12:43:01;;;;;;;1.27;0.70;;;20.70;99.80;;;;;;5137640;27;20916;-80
2021/08/25 12:45:28;;;;;;;1.93;1.10;;;20.70;97.10;;;;;;5137965;27;20435;-83
2021/08/25 12:47:57;;;;;;;0.93;0.40;;;20.50;97.40;;;;;;5137877;27;20814;-82
2021/08/25 12:50:25;;;;;;;1.77;1.00;;;20.30;96.50;;;;;;5138251;27;20407;-84
2021/08/25 12:52:53;;;;;;;1.20;0.90;;;20.10;97.00;;;;;;5137469;27;20981;-82
2021/08/25 12:55:21;;;;;;;1.43;0.90;;;20.00;97.10;;;;;;5137765;27;20441;-82
2021/08/25 12:57:49;;;;;;;1.80;0.80;;;19.90;98.20;;;;;;5137721;27;20426;-84
2021/08/25 13:00:16;;;;;;;1.13;0.70;;;20.00;99.40;;;;;;5137675;27;20435;-81
2021/08/25 13:02:43;;;;;;;0.70;0.70;;;20.00;99.50;;;;;;5137466;27;20481;-82
2021/08/25 13:05:13;;;;;;;1.03;0.80;;;20.10;97.40;;;;;;5137612;27;20426;-81
2021/08/25 13:07:41;;;;;;;1.20;0.83;;;20.00;97.10;;;;;;5137381;27;20473;-81